sensor_id;sensor_type;location;lat;lon;timestamp;pressure;altitude;pressure_sealevel;temperature;humidity
36964;BME280;22878;48.616;35.326;2023-02-03T00:01:29;100814.86;;;0.05;100.00
36964;BME280;22878;48.616;35.326;2023-02-03T00:03:55;100812.15;;;0.01;100.00
36964;BME280;22878;48.616;35.326;2023-02-03T00:06:20;100810.73;;;-0.04;100.00
36964;BME280;22878;48.616;35.326;2023-02-03T00:08:46;100808.32;;;-0.07;100.00
36964;BME280;22878;48.616;35.326;2023-02-03T00:11:12;100806.36;;;-0.11;100.00
36964;BME280;22878;48.616;35.326;2023-02-03T00:13:37;100806.56;;;-0.14;100.00
36964;BME280;22878;48.616;35.326;2023-02-03T00:16:03;100807.41;;;-0.17;100.00
36964;BME280;22878;48.616;35.326;2023-02-03T00:18:31;100808.44;;;-0.19;100.00
36964;BME280;22878;48.616;35.326;2023-02-03T00:20:57;100809.75;;;-0.20;100.00
36964;BME280;22878;48.616;35.326;2023-02-03T00:23:22;100814.98;;;-0.21;100.00
36964;BME280;22878;48.616;35.326;2023-02-03T00:25:50;100815.98;;;-0.22;100.00
36964;BME280;22878;48.616;35.326;2023-02-03T00:28:16;100813.22;;;-0.23;100.00
36964;BME280;22878;48.616;35.326;2023-02-03T00:30:42;100815.00;;;-0.23;100.00
36964;BME280;22878;48.616;35.326;2023-02-03T00:33:07;100815.13;;;-0.22;100.00
36964;BME280;22878;48.616;35.326;2023-02-03T00:35:32;100811.60;;;-0.21;100.00
36964;BME280;22878;48.616;35.326;2023-02-03T00:37:58;100812.40;;;-0.22;100.00
36964;BME280;22878;48.616;35.326;2023-02-03T00:40:25;100812.89;;;-0.21;100.00
36964;BME280;22878;48.616;35.326;2023-02-03T00:42:51;100812.90;;;-0.25;100.00
36964;BME280;22878;48.616;35.326;2023-02-03T00:45:17;100813.67;;;-0.27;100.00
36964;BME280;22878;48.616;35.326;2023-02-03T00:47:42;100815.42;;;-0.28;100.00
36964;BME280;22878;48.616;35.326;2023-02-03T00:50:08;100821.67;;;-0.29;100.00
36964;BME280;22878;48.616;35.326;2023-02-03T00:52:34;100822.59;;;-0.30;100.00
36964;BME280;22878;48.616;35.326;2023-02-03T00:55:00;100821.14;;;-0.33;100.00
36964;BME280;22878;48.616;35.326;2023-02-03T00:57:25;100824.15;;;-0.36;100.00
36964;BME280;22878;48.616;35.326;2023-02-03T00:59:51;100825.38;;;-0.37;100.00
36964;BME280;22878;48.616;35.326;2023-02-03T01:02:16;100826.27;;;-0.38;100.00
36964;BME280;22878;48.616;35.326;2023-02-03T01:04:42;100824.38;;;-0.39;100.00
36964;BME280;22878;48.616;35.326;2023-02-03T01:07:09;100825.91;;;-0.40;100.00
36964;BME280;22878;48.616;35.326;2023-02-03T01:09:35;100829.31;;;-0.39;100.00
36964;BME280;22878;48.616;35.326;2023-02-03T01:12:03;100827.31;;;-0.39;100.00
36964;BME280;22878;48.616;35.326;2023-02-03T01:14:28;100833.27;;;-0.38;100.00
36964;BME280;22878;48.616;35.326;2023-02-03T01:16:54;100832.45;;;-0.39;100.00
36964;BME280;22878;48.616;35.326;2023-02-03T01:19:20;100834.13;;;-0.41;100.00
36964;BME280;22878;48.616;35.326;2023-02-03T01:21:46;100834.20;;;-0.43;100.00
36964;BME280;22878;48.616;35.326;2023-02-03T01:24:11;100836.71;;;-0.45;100.00
36964;BME280;22878;48.616;35.326;2023-02-03T01:26:39;100831.71;;;-0.48;100.00
36964;BME280;22878;48.616;35.326;2023-02-03T01:29:05;100830.45;;;-0.48;100.00
36964;BME280;22878;48.616;35.326;2023-02-03T01:31:34;100831.98;;;-0.47;100.00
36964;BME280;22878;48.616;35.326;2023-02-03T01:34:01;100831.55;;;-0.48;100.00
36964;BME280;22878;48.616;35.326;2023-02-03T01:36:29;100829.38;;;-0.49;100.00
36964;BME280;22878;48.616;35.326;2023-02-03T01:41:40;100831.27;;;-0.50;100.00
36964;BME280;22878;48.616;35.326;2023-02-03T01:52:35;100837.64;;;-0.58;100.00
36964;BME280;22878;48.616;35.326;2023-02-03T01:55:04;100837.13;;;-0.59;100.00
36964;BME280;22878;48.616;35.326;2023-02-03T01:57:59;100840.63;;;-0.59;100.00
36964;BME280;22878;48.616;35.326;2023-02-03T02:00:27;100836.98;;;-0.61;100.00
36964;BME280;22878;48.616;35.326;2023-02-03T02:02:52;100836.21;;;-0.63;100.00
36964;BME280;22878;48.616;35.326;2023-02-03T02:08:11;100842.48;;;-0.66;100.00
36964;BME280;22878;48.616;35.326;2023-02-03T02:10:37;100844.36;;;-0.68;100.00
36964;BME280;22878;48.616;35.326;2023-02-03T02:13:03;100846.86;;;-0.70;100.00
36964;BME280;22878;48.616;35.326;2023-02-03T02:18:23;100848.87;;;-0.69;100.00
36964;BME280;22878;48.616;35.326;2023-02-03T02:37:15;100849.39;;;-0.26;100.00
36964;BME280;22878;48.616;35.326;2023-02-03T02:45:04;100843.28;;;-0.04;100.00
36964;BME280;22878;48.616;35.326;2023-02-03T02:47:31;100843.48;;;0.02;100.00
36964;BME280;22878;48.616;35.326;2023-02-03T02:52:29;100846.05;;;0.11;100.00
36964;BME280;22878;48.616;35.326;2023-02-03T02:55:00;100849.44;;;0.16;100.00
36964;BME280;22878;48.616;35.326;2023-02-03T02:57:27;100849.59;;;0.22;100.00
36964;BME280;22878;48.616;35.326;2023-02-03T02:59:55;100849.64;;;0.28;100.00
36964;BME280;22878;48.616;35.326;2023-02-03T03:02:20;100852.08;;;0.34;100.00
36964;BME280;22878;48.616;35.326;2023-02-03T03:04:48;100851.89;;;0.40;100.00
36964;BME280;22878;48.616;35.326;2023-02-03T03:07:21;100848.20;;;0.46;100.00
36964;BME280;22878;48.616;35.326;2023-02-03T03:09:51;100843.71;;;0.52;100.00
36964;BME280;22878;48.616;35.326;2023-02-03T03:12:26;100845.01;;;0.56;100.00
36964;BME280;22878;48.616;35.326;2023-02-03T03:15:14;100848.51;;;0.59;100.00
36964;BME280;22878;48.616;35.326;2023-02-03T03:17:53;100844.45;;;0.62;100.00
36964;BME280;22878;48.616;35.326;2023-02-03T03:20:25;100845.39;;;0.65;100.00
36964;BME280;22878;48.616;35.326;2023-02-03T03:23:04;100848.15;;;0.68;100.00
36964;BME280;22878;48.616;35.326;2023-02-03T03:25:38;100846.38;;;0.71;100.00
36964;BME280;22878;48.616;35.326;2023-02-03T03:28:12;100846.61;;;0.73;100.00
36964;BME280;22878;48.616;35.326;2023-02-03T03:30:39;100848.16;;;0.77;100.00
36964;BME280;22878;48.616;35.326;2023-02-03T03:33:06;100848.47;;;0.80;100.00
36964;BME280;22878;48.616;35.326;2023-02-03T03:35:41;100854.42;;;0.83;100.00
36964;BME280;22878;48.616;35.326;2023-02-03T03:38:29;100850.80;;;0.88;100.00
36964;BME280;22878;48.616;35.326;2023-02-03T03:41:35;100851.06;;;0.90;100.00
36964;BME280;22878;48.616;35.326;2023-02-03T03:44:03;100854.43;;;0.93;100.00
36964;BME280;22878;48.616;35.326;2023-02-03T03:46:37;100852.17;;;0.96;100.00
36964;BME280;22878;48.616;35.326;2023-02-03T03:49:06;100848.61;;;0.99;100.00
36964;BME280;22878;48.616;35.326;2023-02-03T03:51:45;100845.56;;;1.01;100.00
36964;BME280;22878;48.616;35.326;2023-02-03T03:54:14;100846.32;;;1.03;100.00
36964;BME280;22878;48.616;35.326;2023-02-03T03:56:47;100843.58;;;1.06;100.00
36964;BME280;22878;48.616;35.326;2023-02-03T03:59:16;100842.66;;;1.09;100.00
36964;BME280;22878;48.616;35.326;2023-02-03T04:01:45;100841.50;;;1.12;100.00
36964;BME280;22878;48.616;35.326;2023-02-03T04:04:13;100841.70;;;1.11;100.00
36964;BME280;22878;48.616;35.326;2023-02-03T04:06:39;100845.00;;;1.13;100.00
36964;BME280;22878;48.616;35.326;2023-02-03T04:09:05;100843.33;;;1.17;100.00
36964;BME280;22878;48.616;35.326;2023-02-03T04:11:31;100841.23;;;1.18;100.00
36964;BME280;22878;48.616;35.326;2023-02-03T04:14:15;100840.63;;;1.17;100.00
36964;BME280;22878;48.616;35.326;2023-02-03T04:16:40;100841.60;;;1.18;100.00
36964;BME280;22878;48.616;35.326;2023-02-03T04:19:06;100842.20;;;1.18;100.00
36964;BME280;22878;48.616;35.326;2023-02-03T04:21:31;100846.20;;;1.17;100.00
36964;BME280;22878;48.616;35.326;2023-02-03T04:23:57;100846.42;;;1.13;100.00
36964;BME280;22878;48.616;35.326;2023-02-03T04:26:22;100846.70;;;1.13;100.00
36964;BME280;22878;48.616;35.326;2023-02-03T04:28:48;100851.89;;;1.10;100.00
36964;BME280;22878;48.616;35.326;2023-02-03T04:31:15;100852.79;;;1.09;100.00
36964;BME280;22878;48.616;35.326;2023-02-03T04:33:41;100853.20;;;1.09;100.00
36964;BME280;22878;48.616;35.326;2023-02-03T04:36:07;100855.08;;;1.09;100.00
36964;BME280;22878;48.616;35.326;2023-02-03T04:38:33;100858.35;;;1.11;100.00
36964;BME280;22878;48.616;35.326;2023-02-03T04:40:58;100863.52;;;1.09;100.00
36964;BME280;22878;48.616;35.326;2023-02-03T04:43:23;100860.10;;;1.09;100.00
36964;BME280;22878;48.616;35.326;2023-02-03T04:45:49;100863.60;;;1.09;100.00
36964;BME280;22878;48.616;35.326;2023-02-03T04:48:15;100862.88;;;1.10;100.00
36964;BME280;22878;48.616;35.326;2023-02-03T04:50:40;100867.21;;;1.11;100.00
36964;BME280;22878;48.616;35.326;2023-02-03T04:53:06;100872.04;;;1.12;100.00
36964;BME280;22878;48.616;35.326;2023-02-03T04:55:31;100878.33;;;1.10;100.00
36964;BME280;22878;48.616;35.326;2023-02-03T04:57:59;100876.55;;;1.09;100.00
36964;BME280;22878;48.616;35.326;2023-02-03T05:00:25;100879.55;;;1.07;100.00
36964;BME280;22878;48.616;35.326;2023-02-03T05:02:52;100881.73;;;1.05;100.00
36964;BME280;22878;48.616;35.326;2023-02-03T05:05:18;100883.50;;;1.03;100.00
36964;BME280;22878;48.616;35.326;2023-02-03T05:07:43;100885.38;;;1.02;100.00
36964;BME280;22878;48.616;35.326;2023-02-03T05:10:09;100887.11;;;1.04;100.00
36964;BME280;22878;48.616;35.326;2023-02-03T05:12:34;100885.33;;;1.04;100.00
36964;BME280;22878;48.616;35.326;2023-02-03T05:15:00;100880.95;;;1.03;100.00
36964;BME280;22878;48.616;35.326;2023-02-03T05:17:26;100883.80;;;1.06;100.00
36964;BME280;22878;48.616;35.326;2023-02-03T05:19:51;100886.80;;;1.06;100.00
36964;BME280;22878;48.616;35.326;2023-02-03T05:22:17;100891.66;;;1.07;100.00
36964;BME280;22878;48.616;35.326;2023-02-03T05:24:42;100894.67;;;1.05;100.00
36964;BME280;22878;48.616;35.326;2023-02-03T05:27:08;100895.02;;;1.01;100.00
36964;BME280;22878;48.616;35.326;2023-02-03T05:29:33;100896.21;;;0.99;100.00
36964;BME280;22878;48.616;35.326;2023-02-03T05:31:59;100899.98;;;1.01;100.00
36964;BME280;22878;48.616;35.326;2023-02-03T05:34:24;100897.15;;;1.00;100.00
36964;BME280;22878;48.616;35.326;2023-02-03T05:36:50;100898.64;;;0.97;100.00
36964;BME280;22878;48.616;35.326;2023-02-03T05:39:15;100896.77;;;0.94;100.00
36964;BME280;22878;48.616;35.326;2023-02-03T05:41:41;100896.81;;;0.89;100.00
36964;BME280;22878;48.616;35.326;2023-02-03T05:44:20;100900.84;;;0.88;100.00
36964;BME280;22878;48.616;35.326;2023-02-03T05:46:47;100898.70;;;0.85;100.00
36964;BME280;22878;48.616;35.326;2023-02-03T05:49:13;100901.02;;;0.86;100.00
36964;BME280;22878;48.616;35.326;2023-02-03T05:51:39;100904.81;;;0.86;100.00
36964;BME280;22878;48.616;35.326;2023-02-03T05:54:05;100909.23;;;0.86;100.00
36964;BME280;22878;48.616;35.326;2023-02-03T05:56:31;100916.34;;;0.87;100.00
36964;BME280;22878;48.616;35.326;2023-02-03T05:58:56;100911.80;;;0.87;100.00
36964;BME280;22878;48.616;35.326;2023-02-03T06:01:22;100916.77;;;0.88;100.00
36964;BME280;22878;48.616;35.326;2023-02-03T06:03:48;100922.38;;;0.87;100.00
36964;BME280;22878;48.616;35.326;2023-02-03T06:06:14;100918.88;;;0.88;100.00
36964;BME280;22878;48.616;35.326;2023-02-03T06:08:41;100917.21;;;0.89;100.00
36964;BME280;22878;48.616;35.326;2023-02-03T06:11:06;100920.27;;;0.93;100.00
36964;BME280;22878;48.616;35.326;2023-02-03T06:13:32;100924.45;;;0.98;100.00
36964;BME280;22878;48.616;35.326;2023-02-03T06:15:57;100922.71;;;0.99;100.00
36964;BME280;22878;48.616;35.326;2023-02-03T06:18:23;100922.53;;;0.99;100.00
36964;BME280;22878;48.616;35.326;2023-02-03T06:20:49;100924.53;;;1.03;100.00
36964;BME280;22878;48.616;35.326;2023-02-03T06:23:15;100929.75;;;1.02;100.00
36964;BME280;22878;48.616;35.326;2023-02-03T06:25:48;100929.27;;;1.02;100.00
36964;BME280;22878;48.616;35.326;2023-02-03T06:28:15;100933.10;;;1.06;100.00
36964;BME280;22878;48.616;35.326;2023-02-03T06:30:41;100928.17;;;1.07;100.00
36964;BME280;22878;48.616;35.326;2023-02-03T06:33:07;100927.11;;;1.07;100.00
36964;BME280;22878;48.616;35.326;2023-02-03T06:35:33;100931.84;;;1.09;100.00
36964;BME280;22878;48.616;35.326;2023-02-03T06:37:59;100932.36;;;1.12;100.00
36964;BME280;22878;48.616;35.326;2023-02-03T06:40:25;100934.63;;;1.14;100.00
36964;BME280;22878;48.616;35.326;2023-02-03T06:42:50;100935.61;;;1.12;100.00
36964;BME280;22878;48.616;35.326;2023-02-03T06:45:17;100935.58;;;1.05;100.00
36964;BME280;22878;48.616;35.326;2023-02-03T06:47:44;100938.44;;;1.05;100.00
36964;BME280;22878;48.616;35.326;2023-02-03T06:50:15;100942.90;;;1.02;100.00
36964;BME280;22878;48.616;35.326;2023-02-03T06:52:41;100948.55;;;1.04;100.00
36964;BME280;22878;48.616;35.326;2023-02-03T06:55:07;100949.45;;;1.07;100.00
36964;BME280;22878;48.616;35.326;2023-02-03T06:57:33;100952.30;;;1.11;100.00
36964;BME280;22878;48.616;35.326;2023-02-03T06:59:59;100953.16;;;1.14;100.00
36964;BME280;22878;48.616;35.326;2023-02-03T07:02:25;100961.40;;;1.18;100.00
36964;BME280;22878;48.616;35.326;2023-02-03T07:04:50;100959.91;;;1.13;100.00
36964;BME280;22878;48.616;35.326;2023-02-03T07:07:16;100966.73;;;1.09;100.00
36964;BME280;22878;48.616;35.326;2023-02-03T07:09:44;100970.17;;;1.10;100.00
36964;BME280;22878;48.616;35.326;2023-02-03T07:12:10;100969.00;;;1.11;100.00
36964;BME280;22878;48.616;35.326;2023-02-03T07:14:36;100963.55;;;1.09;100.00
36964;BME280;22878;48.616;35.326;2023-02-03T07:17:04;100963.91;;;1.08;100.00
36964;BME280;22878;48.616;35.326;2023-02-03T07:19:30;100962.66;;;1.10;100.00
36964;BME280;22878;48.616;35.326;2023-02-03T07:21:56;100960.68;;;1.11;100.00
36964;BME280;22878;48.616;35.326;2023-02-03T07:24:21;100963.98;;;1.14;100.00
36964;BME280;22878;48.616;35.326;2023-02-03T07:26:47;100965.72;;;1.21;100.00
36964;BME280;22878;48.616;35.326;2023-02-03T07:29:13;100965.41;;;1.23;100.00
36964;BME280;22878;48.616;35.326;2023-02-03T07:31:38;100962.52;;;1.26;100.00
36964;BME280;22878;48.616;35.326;2023-02-03T07:34:04;100961.46;;;1.26;100.00
36964;BME280;22878;48.616;35.326;2023-02-03T07:36:31;100955.97;;;1.30;100.00
36964;BME280;22878;48.616;35.326;2023-02-03T07:38:56;100955.85;;;1.37;100.00
36964;BME280;22878;48.616;35.326;2023-02-03T07:41:22;100956.23;;;1.43;100.00
36964;BME280;22878;48.616;35.326;2023-02-03T07:43:48;100954.27;;;1.51;100.00
36964;BME280;22878;48.616;35.326;2023-02-03T07:46:14;100951.14;;;1.59;100.00
36964;BME280;22878;48.616;35.326;2023-02-03T07:48:39;100949.98;;;1.61;100.00
36964;BME280;22878;48.616;35.326;2023-02-03T07:51:05;100949.77;;;1.68;100.00
36964;BME280;22878;48.616;35.326;2023-02-03T07:53:31;100945.56;;;1.77;100.00
36964;BME280;22878;48.616;35.326;2023-02-03T07:56:01;100941.04;;;1.89;100.00
36964;BME280;22878;48.616;35.326;2023-02-03T07:58:27;100943.95;;;2.04;100.00
36964;BME280;22878;48.616;35.326;2023-02-03T08:00:53;100939.41;;;2.24;100.00
36964;BME280;22878;48.616;35.326;2023-02-03T08:03:19;100940.73;;;2.50;100.00
36964;BME280;22878;48.616;35.326;2023-02-03T08:05:44;100939.88;;;2.78;100.00
36964;BME280;22878;48.616;35.326;2023-02-03T08:08:11;100938.96;;;2.97;100.00
36964;BME280;22878;48.616;35.326;2023-02-03T08:10:36;100940.83;;;3.02;100.00
36964;BME280;22878;48.616;35.326;2023-02-03T08:13:02;100943.33;;;3.09;100.00
36964;BME280;22878;48.616;35.326;2023-02-03T08:15:28;100942.85;;;3.12;100.00
36964;BME280;22878;48.616;35.326;2023-02-03T08:17:54;100940.41;;;3.21;100.00
36964;BME280;22878;48.616;35.326;2023-02-03T08:20:19;100941.34;;;3.34;100.00
36964;BME280;22878;48.616;35.326;2023-02-03T08:22:45;100938.91;;;3.44;100.00
36964;BME280;22878;48.616;35.326;2023-02-03T08:25:11;100941.25;;;3.51;100.00
36964;BME280;22878;48.616;35.326;2023-02-03T08:27:38;100937.03;;;3.46;100.00
36964;BME280;22878;48.616;35.326;2023-02-03T08:30:05;100937.52;;;3.47;100.00
36964;BME280;22878;48.616;35.326;2023-02-03T08:32:31;100934.95;;;3.47;100.00
36964;BME280;22878;48.616;35.326;2023-02-03T08:34:57;100936.17;;;3.49;100.00
36964;BME280;22878;48.616;35.326;2023-02-03T08:37:23;100942.13;;;3.50;100.00
36964;BME280;22878;48.616;35.326;2023-02-03T08:39:52;100939.85;;;3.54;100.00
36964;BME280;22878;48.616;35.326;2023-02-03T08:42:18;100942.69;;;3.60;100.00
36964;BME280;22878;48.616;35.326;2023-02-03T08:44:44;100939.25;;;3.73;100.00
36964;BME280;22878;48.616;35.326;2023-02-03T08:47:10;100941.71;;;3.81;100.00
36964;BME280;22878;48.616;35.326;2023-02-03T08:49:36;100940.21;;;3.91;100.00
36964;BME280;22878;48.616;35.326;2023-02-03T08:52:05;100939.80;;;3.95;100.00
36964;BME280;22878;48.616;35.326;2023-02-03T08:54:31;100939.00;;;4.05;100.00
36964;BME280;22878;48.616;35.326;2023-02-03T08:56:57;100932.05;;;4.12;100.00
36964;BME280;22878;48.616;35.326;2023-02-03T08:59:23;100927.77;;;4.05;100.00
36964;BME280;22878;48.616;35.326;2023-02-03T09:01:49;100922.86;;;4.13;100.00
36964;BME280;22878;48.616;35.326;2023-02-03T09:04:16;100913.35;;;4.23;100.00
36964;BME280;22878;48.616;35.326;2023-02-03T09:06:44;100913.08;;;4.36;100.00
36964;BME280;22878;48.616;35.326;2023-02-03T09:09:12;100912.85;;;4.49;100.00
36964;BME280;22878;48.616;35.326;2023-02-03T09:11:39;100913.39;;;4.55;100.00
36964;BME280;22878;48.616;35.326;2023-02-03T09:14:05;100914.39;;;4.64;100.00
36964;BME280;22878;48.616;35.326;2023-02-03T09:16:31;100912.38;;;4.66;100.00
36964;BME280;22878;48.616;35.326;2023-02-03T09:18:56;100913.56;;;4.66;100.00
36964;BME280;22878;48.616;35.326;2023-02-03T09:21:22;100910.95;;;4.63;100.00
36964;BME280;22878;48.616;35.326;2023-02-03T09:23:48;100911.16;;;4.60;100.00
36964;BME280;22878;48.616;35.326;2023-02-03T09:26:14;100908.02;;;4.63;100.00
36964;BME280;22878;48.616;35.326;2023-02-03T09:28:40;100906.33;;;4.76;100.00
36964;BME280;22878;48.616;35.326;2023-02-03T09:31:08;100908.08;;;4.85;100.00
36964;BME280;22878;48.616;35.326;2023-02-03T09:33:35;100908.22;;;4.98;100.00
36964;BME280;22878;48.616;35.326;2023-02-03T09:36:01;100900.96;;;5.13;100.00
36964;BME280;22878;48.616;35.326;2023-02-03T09:38:27;100904.67;;;5.34;100.00
36964;BME280;22878;48.616;35.326;2023-02-03T09:48:41;100888.57;;;5.87;100.00
36964;BME280;22878;48.616;35.326;2023-02-03T09:51:20;100879.05;;;5.99;100.00
36964;BME280;22878;48.616;35.326;2023-02-03T09:53:56;100878.49;;;6.16;100.00
36964;BME280;22878;48.616;35.326;2023-02-03T09:56:28;100880.11;;;6.23;100.00
36964;BME280;22878;48.616;35.326;2023-02-03T09:58:54;100881.42;;;6.27;100.00
36964;BME280;22878;48.616;35.326;2023-02-03T10:01:21;100876.08;;;6.34;100.00
36964;BME280;22878;48.616;35.326;2023-02-03T10:06:44;100875.05;;;6.04;100.00
36964;BME280;22878;48.616;35.326;2023-02-03T10:09:21;100874.38;;;6.02;100.00
36964;BME280;22878;48.616;35.326;2023-02-03T10:14:50;100870.27;;;6.15;100.00
36964;BME280;22878;48.616;35.326;2023-02-03T10:17:40;100859.50;;;6.15;100.00
36964;BME280;22878;48.616;35.326;2023-02-03T10:20:27;100857.55;;;6.20;100.00
36964;BME280;22878;48.616;35.326;2023-02-03T10:23:00;100857.35;;;6.26;100.00
36964;BME280;22878;48.616;35.326;2023-02-03T10:25:52;100855.48;;;6.33;100.00
36964;BME280;22878;48.616;35.326;2023-02-03T10:28:22;100857.46;;;6.39;100.00
36964;BME280;22878;48.616;35.326;2023-02-03T10:31:18;100853.07;;;6.45;100.00
36964;BME280;22878;48.616;35.326;2023-02-03T10:33:45;100849.02;;;6.64;100.00
36964;BME280;22878;48.616;35.326;2023-02-03T10:36:22;100848.72;;;6.74;100.00
36964;BME280;22878;48.616;35.326;2023-02-03T10:41:34;100837.70;;;6.69;100.00
36964;BME280;22878;48.616;35.326;2023-02-03T10:44:18;100834.20;;;6.67;100.00
36964;BME280;22878;48.616;35.326;2023-02-03T10:46:44;100829.50;;;6.75;100.00
36964;BME280;22878;48.616;35.326;2023-02-03T10:49:11;100829.00;;;6.85;100.00
36964;BME280;22878;48.616;35.326;2023-02-03T10:51:43;100822.67;;;6.99;100.00
36964;BME280;22878;48.616;35.326;2023-02-03T10:54:45;100822.92;;;7.01;100.00
36964;BME280;22878;48.616;35.326;2023-02-03T10:57:13;100822.91;;;6.92;100.00
36964;BME280;22878;48.616;35.326;2023-02-03T10:59:42;100818.31;;;6.91;100.00
36964;BME280;22878;48.616;35.326;2023-02-03T11:02:30;100816.44;;;6.95;100.00
36964;BME280;22878;48.616;35.326;2023-02-03T11:05:09;100814.94;;;7.06;100.00
36964;BME280;22878;48.616;35.326;2023-02-03T11:07:35;100807.75;;;7.14;100.00
36964;BME280;22878;48.616;35.326;2023-02-03T11:10:01;100809.30;;;7.23;100.00
36964;BME280;22878;48.616;35.326;2023-02-03T11:12:26;100811.50;;;7.32;100.00
36964;BME280;22878;48.616;35.326;2023-02-03T11:14:52;100810.12;;;7.47;100.00
36964;BME280;22878;48.616;35.326;2023-02-03T11:17:20;100809.49;;;7.45;100.00
36964;BME280;22878;48.616;35.326;2023-02-03T11:20:12;100806.66;;;7.42;100.00
36964;BME280;22878;48.616;35.326;2023-02-03T11:22:39;100809.48;;;7.41;100.00
36964;BME280;22878;48.616;35.326;2023-02-03T11:25:18;100805.23;;;7.40;100.00
36964;BME280;22878;48.616;35.326;2023-02-03T11:27:44;100802.44;;;7.39;100.00
36964;BME280;22878;48.616;35.326;2023-02-03T11:30:23;100804.21;;;7.42;100.00
36964;BME280;22878;48.616;35.326;2023-02-03T11:32:51;100802.61;;;7.42;100.00
36964;BME280;22878;48.616;35.326;2023-02-03T11:35:25;100802.59;;;7.37;100.00
36964;BME280;22878;48.616;35.326;2023-02-03T11:37:56;100801.08;;;7.41;100.00
36964;BME280;22878;48.616;35.326;2023-02-03T12:11:39;100778.25;;;7.13;100.00
36964;BME280;22878;48.616;35.326;2023-02-03T12:14:25;100776.39;;;7.16;100.00
36964;BME280;22878;48.616;35.326;2023-02-03T12:20:02;100775.45;;;7.13;100.00
36964;BME280;22878;48.616;35.326;2023-02-03T12:25:27;100781.30;;;7.13;100.00
36964;BME280;22878;48.616;35.326;2023-02-03T12:30:47;100779.57;;;7.03;100.00
36964;BME280;22878;48.616;35.326;2023-02-03T12:33:25;100778.16;;;6.98;100.00
36964;BME280;22878;48.616;35.326;2023-02-03T12:36:04;100779.67;;;6.94;100.00
36964;BME280;22878;48.616;35.326;2023-02-03T12:38:49;100778.95;;;6.91;100.00
36964;BME280;22878;48.616;35.326;2023-02-03T12:41:23;100780.45;;;6.89;100.00
36964;BME280;22878;48.616;35.326;2023-02-03T12:43:56;100782.11;;;6.87;100.00
36964;BME280;22878;48.616;35.326;2023-02-03T12:46:29;100777.56;;;6.85;100.00
36964;BME280;22878;48.616;35.326;2023-02-03T12:49:31;100777.36;;;6.79;100.00
36964;BME280;22878;48.616;35.326;2023-02-03T12:52:04;100775.23;;;6.81;100.00
36964;BME280;22878;48.616;35.326;2023-02-03T12:54:48;100769.90;;;6.87;100.00
36964;BME280;22878;48.616;35.326;2023-02-03T13:03:08;100759.55;;;6.80;100.00
36964;BME280;22878;48.616;35.326;2023-02-03T13:05:40;100757.10;;;6.71;100.00
36964;BME280;22878;48.616;35.326;2023-02-03T13:08:22;100756.85;;;6.63;100.00
36964;BME280;22878;48.616;35.326;2023-02-03T13:11:22;100757.17;;;6.57;100.00
36964;BME280;22878;48.616;35.326;2023-02-03T13:13:55;100756.04;;;6.48;100.00
36964;BME280;22878;48.616;35.326;2023-02-03T13:16:31;100755.83;;;6.43;100.00
36964;BME280;22878;48.616;35.326;2023-02-03T13:19:03;100755.55;;;6.36;100.00
36964;BME280;22878;48.616;35.326;2023-02-03T13:21:30;100752.21;;;6.31;100.00
36964;BME280;22878;48.616;35.326;2023-02-03T13:23:56;100754.23;;;6.27;100.00
36964;BME280;22878;48.616;35.326;2023-02-03T13:33:03;100751.44;;;6.16;100.00
36964;BME280;22878;48.616;35.326;2023-02-03T13:38:40;100742.82;;;6.07;100.00
36964;BME280;22878;48.616;35.326;2023-02-03T13:41:17;100745.78;;;6.03;100.00
36964;BME280;22878;48.616;35.326;2023-02-03T13:43:59;100745.27;;;5.97;100.00
36964;BME280;22878;48.616;35.326;2023-02-03T13:46:30;100744.39;;;5.88;100.00
36964;BME280;22878;48.616;35.326;2023-02-03T13:48:59;100745.11;;;5.83;100.00
36964;BME280;22878;48.616;35.326;2023-02-03T13:51:29;100744.70;;;5.78;100.00
36964;BME280;22878;48.616;35.326;2023-02-03T13:54:07;100745.18;;;5.70;100.00
36964;BME280;22878;48.616;35.326;2023-02-03T13:56:37;100743.61;;;5.66;100.00
36964;BME280;22878;48.616;35.326;2023-02-03T14:01:39;100748.45;;;5.58;100.00
36964;BME280;22878;48.616;35.326;2023-02-03T14:04:07;100749.20;;;5.53;100.00
36964;BME280;22878;48.616;35.326;2023-02-03T14:11:47;100744.77;;;5.41;100.00
36964;BME280;22878;48.616;35.326;2023-02-03T14:16:46;100743.43;;;5.38;100.00
36964;BME280;22878;48.616;35.326;2023-02-03T14:22:06;100740.35;;;5.37;100.00
36964;BME280;22878;48.616;35.326;2023-02-03T14:24:38;100741.23;;;5.38;100.00
36964;BME280;22878;48.616;35.326;2023-02-03T14:27:19;100738.19;;;5.36;100.00
36964;BME280;22878;48.616;35.326;2023-02-03T14:30:03;100731.73;;;5.32;100.00
36964;BME280;22878;48.616;35.326;2023-02-03T14:35:16;100724.02;;;5.20;100.00
36964;BME280;22878;48.616;35.326;2023-02-03T14:37:51;100726.73;;;5.09;100.00
36964;BME280;22878;48.616;35.326;2023-02-03T14:43:24;100726.88;;;4.82;100.00
36964;BME280;22878;48.616;35.326;2023-02-03T14:48:48;100725.45;;;4.60;100.00
36964;BME280;22878;48.616;35.326;2023-02-03T15:02:27;100730.54;;;3.92;100.00
36964;BME280;22878;48.616;35.326;2023-02-03T15:07:48;100735.97;;;3.56;100.00
36964;BME280;22878;48.616;35.326;2023-02-03T15:10:29;100734.50;;;3.41;100.00
36964;BME280;22878;48.616;35.326;2023-02-03T15:13:04;100734.17;;;3.26;100.00
36964;BME280;22878;48.616;35.326;2023-02-03T15:15:40;100736.37;;;3.10;100.00
36964;BME280;22878;48.616;35.326;2023-02-03T15:18:29;100741.40;;;2.94;100.00